createdAt,value
2018-06-30T00:00:28.060Z,90.89
2018-06-30T00:01:28.224Z,91.51
2018-06-30T00:02:28.395Z,91.94
2018-06-30T00:03:28.568Z,92.04
2018-06-30T00:04:28.739Z,93.00
2018-06-30T00:05:28.903Z,94.45
2018-06-30T00:06:29.073Z,94.59
2018-06-30T00:07:29.246Z,94.45
2018-06-30T00:08:29.470Z,94.83
2018-06-30T00:09:29.584Z,95.31
2018-06-30T00:10:29.765Z,96.08
2018-06-30T00:11:29.924Z,96.66
2018-06-30T00:12:30.094Z,96.85
2018-06-30T00:15:03.186Z,97.33
2018-06-30T00:16:03.362Z,97.24
2018-06-30T00:17:03.526Z,97.04
2018-06-30T00:18:03.700Z,96.85
2018-06-30T00:19:03.884Z,96.94
2018-06-30T00:20:04.046Z,96.75
2018-06-30T00:21:04.215Z,97.33
2018-06-30T00:22:04.383Z,97.33
2018-06-30T00:23:04.557Z,98.39
2018-06-30T00:24:04.708Z,98.58
2018-06-30T00:25:04.873Z,99.35
2018-06-30T00:26:05.048Z,99.83
2018-06-30T00:27:05.212Z,99.16
2018-06-30T00:28:05.376Z,99.73
2018-06-30T00:29:05.544Z,99.06
2018-06-30T00:31:37.814Z,98.58
2018-06-30T00:32:37.984Z,98.58
2018-06-30T00:33:38.153Z,99.99
2018-06-30T00:34:38.321Z,99.99
2018-06-30T00:35:38.487Z,99.99
2018-06-30T00:36:38.657Z,99.99
2018-06-30T00:37:38.825Z,99.99
2018-06-30T00:38:38.995Z,99.99
2018-06-30T00:39:39.167Z,99.99
2018-06-30T00:40:39.331Z,99.99
2018-06-30T00:41:39.501Z,99.99
2018-06-30T00:42:39.667Z,99.99
2018-06-30T00:43:39.835Z,99.99
2018-06-30T00:44:40.008Z,99.99
2018-06-30T00:45:40.183Z,99.99
2018-06-30T00:48:22.462Z,99.99
2018-06-30T00:49:22.633Z,99.99
2018-06-30T00:50:22.801Z,99.99
2018-06-30T00:51:22.970Z,99.99
2018-06-30T00:52:23.140Z,99.99
2018-06-30T00:53:23.312Z,99.99
2018-06-30T00:54:23.482Z,99.99
2018-06-30T00:55:23.654Z,99.99
2018-06-30T00:56:23.821Z,99.99
2018-06-30T00:57:23.992Z,99.99
2018-06-30T01:00:06.257Z,99.99
2018-06-30T01:01:06.426Z,99.99
2018-06-30T01:02:06.652Z,99.99
2018-06-30T01:03:06.764Z,99.99
2018-06-30T01:04:06.932Z,99.99
2018-06-30T01:05:07.102Z,99.99
2018-06-30T01:06:07.271Z,99.99
2018-06-30T01:07:07.441Z,99.99
2018-06-30T01:08:07.610Z,99.99
2018-06-30T01:09:07.778Z,99.99
2018-06-30T01:11:50.052Z,99.99
2018-06-30T01:12:50.223Z,99.99
2018-06-30T01:13:50.390Z,99.99
2018-06-30T01:14:50.556Z,99.99
2018-06-30T01:15:50.731Z,99.99
2018-06-30T01:16:50.906Z,99.99
2018-06-30T01:17:51.072Z,99.99
2018-06-30T01:18:51.242Z,99.99
2018-06-30T01:19:51.411Z,99.99
2018-06-30T01:20:51.580Z,99.99
2018-06-30T01:21:51.746Z,99.99
2018-06-30T01:22:51.914Z,99.99
2018-06-30T01:23:52.081Z,99.99
2018-06-30T01:24:52.249Z,99.99
2018-06-30T01:25:52.416Z,99.99
2018-06-30T01:28:24.729Z,99.99
2018-06-30T01:29:24.900Z,99.99
2018-06-30T01:30:25.062Z,99.99
2018-06-30T01:31:25.228Z,99.99
2018-06-30T01:32:25.418Z,99.99
2018-06-30T01:33:25.559Z,99.99
2018-06-30T01:34:26.271Z,99.99
2018-06-30T01:35:25.916Z,99.99
2018-06-30T01:36:25.935Z,99.99
2018-06-30T01:37:26.118Z,99.99
2018-06-30T01:38:26.291Z,99.99
2018-06-30T01:39:33.268Z,99.99
2018-06-30T01:41:26.878Z,99.99
2018-06-30T01:42:27.075Z,99.99
2018-06-30T01:44:59.352Z,99.99
2018-06-30T01:45:59.523Z,99.99
2018-06-30T01:46:59.692Z,99.99
2018-06-30T01:47:59.860Z,99.99
2018-06-30T01:49:00.030Z,99.99
2018-06-30T01:50:00.197Z,99.99
2018-06-30T01:51:00.365Z,99.99
2018-06-30T01:52:00.534Z,99.99
2018-06-30T01:53:00.705Z,99.99
2018-06-30T01:54:00.876Z,99.99
2018-06-30T01:56:43.132Z,99.99
2018-06-30T01:57:43.299Z,99.99
2018-06-30T01:58:43.464Z,99.99
2018-06-30T01:59:43.633Z,99.99
2018-06-30T02:00:43.799Z,99.99
2018-06-30T02:01:44.675Z,98.96
2018-06-30T02:02:44.091Z,99.63
2018-06-30T02:03:44.261Z,98.10
2018-06-30T02:04:44.428Z,97.71
2018-06-30T02:05:44.597Z,97.62
2018-06-30T02:06:44.761Z,96.85
2018-06-30T02:07:44.932Z,97.81
2018-06-30T02:08:45.100Z,97.52
2018-06-30T02:09:45.267Z,97.91
2018-06-30T02:10:45.435Z,99.92
2018-06-30T02:13:27.995Z,99.99
2018-06-30T02:14:28.158Z,99.99
2018-06-30T02:15:28.327Z,99.99
2018-06-30T02:16:28.496Z,99.99
2018-06-30T02:17:28.663Z,99.99
2018-06-30T02:18:28.832Z,99.99
2018-06-30T02:19:29.007Z,99.99
2018-06-30T02:20:29.168Z,99.99
2018-06-30T02:21:29.338Z,99.99
2018-06-30T02:22:29.504Z,99.99
2018-06-30T02:23:29.673Z,99.99
2018-06-30T02:24:29.842Z,99.99
2018-06-30T02:25:30.010Z,99.99
2018-06-30T02:26:30.175Z,99.99
2018-06-30T02:27:30.344Z,99.99
2018-06-30T02:30:12.898Z,99.99
2018-06-30T02:31:13.067Z,99.99
2018-06-30T02:32:13.238Z,99.99
2018-06-30T02:33:13.400Z,99.99
2018-06-30T02:34:13.567Z,99.99
2018-06-30T02:35:13.734Z,99.99
2018-06-30T02:36:13.904Z,99.99
2018-06-30T02:37:14.072Z,99.99
2018-06-30T02:38:14.242Z,99.99
2018-06-30T02:39:14.502Z,99.99
2018-06-30T02:40:14.574Z,99.99
2018-06-30T02:41:14.742Z,99.99
2018-06-30T02:42:14.910Z,99.99
2018-06-30T02:43:15.077Z,99.99
2018-06-30T02:44:15.243Z,99.99
2018-06-30T02:46:57.525Z,99.99
2018-06-30T02:47:57.692Z,99.99
2018-06-30T02:48:57.870Z,99.59
2018-06-30T02:49:58.034Z,99.99
2018-06-30T02:50:58.201Z,98.63
2018-06-30T02:51:58.378Z,98.10
2018-06-30T02:52:58.538Z,99.99
2018-06-30T02:53:58.705Z,97.81
2018-06-30T02:54:58.881Z,97.04
2018-06-30T02:55:59.043Z,97.42
2018-06-30T02:58:41.608Z,98.44
2018-06-30T02:59:41.776Z,99.59
2018-06-30T03:00:41.944Z,98.91
2018-06-30T03:01:42.111Z,98.24
2018-06-30T03:02:42.278Z,97.14
2018-06-30T03:03:42.446Z,96.27
2018-06-30T03:04:42.615Z,96.85
2018-06-30T03:05:42.780Z,96.47
2018-06-30T03:06:42.947Z,96.47
2018-06-30T03:07:43.116Z,96.17
2018-06-30T03:08:43.284Z,95.31
2018-06-30T03:09:43.450Z,96.66
2018-06-30T03:10:43.617Z,96.27
2018-06-30T03:11:43.784Z,96.08
2018-06-30T03:12:43.952Z,93.77
2018-06-30T03:15:16.519Z,96.47
2018-06-30T03:16:16.683Z,94.26
2018-06-30T03:17:16.931Z,96.47
2018-06-30T03:18:16.972Z,96.66
2018-06-30T03:19:17.149Z,96.75
2018-06-30T03:20:17.335Z,97.04
2018-06-30T03:22:49.892Z,97.76
2018-06-30T03:23:50.063Z,98.53
2018-06-30T03:24:50.230Z,97.67
2018-06-30T03:25:50.397Z,97.57
2018-06-30T03:26:50.565Z,98.00
2018-06-30T03:27:50.733Z,98.77
2018-06-30T03:28:50.899Z,98.86
2018-06-30T03:29:51.067Z,99.54
2018-06-30T03:30:51.236Z,98.91
2018-06-30T03:31:51.407Z,99.40
2018-06-30T03:32:52.146Z,99.59
2018-06-30T03:33:51.688Z,97.47
2018-06-30T03:34:51.860Z,99.40
2018-06-30T03:35:52.025Z,99.11
2018-06-30T03:36:52.189Z,99.35
2018-06-30T03:40:43.076Z,97.52
2018-06-30T03:41:42.871Z,96.66
2018-06-30T03:42:43.038Z,97.33
2018-06-30T03:43:43.203Z,96.75
2018-06-30T03:44:43.426Z,96.37
2018-06-30T03:45:43.544Z,95.89
2018-06-30T03:46:43.712Z,96.47
2018-06-30T03:47:43.879Z,96.08
2018-06-30T03:48:44.046Z,96.47
2018-06-30T03:49:44.213Z,96.85
2018-06-30T03:50:44.383Z,97.42
2018-06-30T03:51:44.557Z,96.66
2018-06-30T03:52:44.725Z,96.27
2018-06-30T03:53:44.892Z,96.17
2018-06-30T03:54:45.063Z,96.17
2018-06-30T03:57:27.622Z,97.33
2018-06-30T03:58:27.788Z,97.42
2018-06-30T03:59:27.956Z,97.42
2018-06-30T04:00:28.131Z,96.17
2018-06-30T04:01:28.294Z,96.56
2018-06-30T04:02:28.462Z,96.27
2018-06-30T04:03:28.630Z,98.10
2018-06-30T04:04:28.797Z,97.52
2018-06-30T04:05:28.965Z,97.52
2018-06-30T04:06:29.132Z,97.42
2018-06-30T04:07:29.300Z,96.66
2018-06-30T04:08:29.498Z,96.32
2018-06-30T04:09:29.634Z,95.26
2018-06-30T04:10:29.806Z,94.49
2018-06-30T04:11:29.970Z,92.67
2018-06-30T04:14:12.532Z,93.25
2018-06-30T04:15:12.704Z,93.15
2018-06-30T04:16:12.870Z,92.57
2018-06-30T04:17:13.035Z,93.54
2018-06-30T04:18:13.204Z,93.15
2018-06-30T04:19:13.372Z,93.05
2018-06-30T04:20:13.542Z,93.05
2018-06-30T04:21:13.708Z,93.15
2018-06-30T04:22:14.783Z,93.54
2018-06-30T04:23:14.065Z,93.77
2018-06-30T04:25:56.628Z,92.14
2018-06-30T04:26:56.796Z,91.96
2018-06-30T04:27:56.966Z,91.86
2018-06-30T04:28:57.129Z,91.76
2018-06-30T04:29:57.296Z,92.48
2018-06-30T04:30:57.464Z,91.38
2018-06-30T04:31:57.633Z,91.66
2018-06-30T04:32:57.802Z,92.91
2018-06-30T04:33:57.965Z,92.05
2018-06-30T04:34:58.133Z,91.38
2018-06-30T04:35:58.300Z,92.05
2018-06-30T04:36:58.467Z,91.66
2018-06-30T04:37:58.632Z,92.53
2018-06-30T04:38:58.800Z,93.77
2018-06-30T04:39:58.966Z,94.07
2018-06-30T04:42:41.527Z,95.21
2018-06-30T04:43:41.697Z,94.64
2018-06-30T04:44:41.864Z,95.36
2018-06-30T04:45:42.032Z,94.83
2018-06-30T04:46:42.201Z,94.26
2018-06-30T04:47:42.365Z,93.59
2018-06-30T04:48:42.531Z,94.54
2018-06-30T04:49:42.701Z,95.21
2018-06-30T04:50:42.867Z,95.21
2018-06-30T04:51:43.033Z,95.79
2018-06-30T04:58:04.099Z,96.89
2018-06-30T04:59:03.766Z,97.86
2018-06-30T05:00:04.572Z,98.63
2018-06-30T05:01:04.114Z,98.38
2018-06-30T05:02:04.284Z,99.34
2018-06-30T05:03:04.449Z,98.29
2018-06-30T05:04:04.615Z,97.91
2018-06-30T05:05:04.784Z,99.25
2018-06-30T05:06:04.952Z,99.92
2018-06-30T05:07:05.120Z,99.99
2018-06-30T05:09:47.670Z,99.99
2018-06-30T05:10:47.847Z,99.99
2018-06-30T05:11:48.005Z,99.99
2018-06-30T05:12:48.222Z,99.99
2018-06-30T05:13:48.342Z,99.99
2018-06-30T05:14:48.507Z,99.99
2018-06-30T05:15:48.676Z,99.99
2018-06-30T05:16:48.844Z,99.99
2018-06-30T05:17:49.011Z,99.99
2018-06-30T05:18:49.177Z,99.99
2018-06-30T05:19:49.345Z,99.99
2018-06-30T05:20:49.511Z,99.99
2018-06-30T05:21:49.678Z,99.99
2018-06-30T05:22:49.849Z,99.99
2018-06-30T05:23:50.033Z,99.99
2018-06-30T05:26:32.585Z,99.99
2018-06-30T05:27:32.756Z,99.99
2018-06-30T05:28:32.927Z,99.99
2018-06-30T05:29:33.097Z,99.99
2018-06-30T05:30:33.265Z,99.99
2018-06-30T05:31:33.433Z,99.99
2018-06-30T05:32:33.600Z,99.99
2018-06-30T05:33:33.788Z,99.99
2018-06-30T05:34:33.932Z,99.99
2018-06-30T05:35:34.104Z,99.99
2018-06-30T05:38:06.396Z,99.99
2018-06-30T05:39:06.569Z,99.99
2018-06-30T05:40:06.730Z,99.99
2018-06-30T05:41:07.446Z,99.99
2018-06-30T05:42:07.090Z,99.99
2018-06-30T05:43:07.254Z,99.99
2018-06-30T05:44:07.420Z,99.99
2018-06-30T05:45:07.579Z,99.99
2018-06-30T05:46:07.750Z,99.99
2018-06-30T05:47:07.918Z,99.99
2018-06-30T05:49:40.479Z,99.99
2018-06-30T05:50:40.646Z,99.99
2018-06-30T05:51:40.814Z,99.99
2018-06-30T05:52:40.985Z,99.99
2018-06-30T05:53:41.149Z,99.99
2018-06-30T05:54:41.317Z,99.99
2018-06-30T05:55:41.488Z,99.99
2018-06-30T05:56:41.655Z,99.99
2018-06-30T05:57:41.829Z,99.99
2018-06-30T05:58:42.001Z,99.99
2018-06-30T06:01:24.558Z,99.99
2018-06-30T06:02:24.722Z,99.99
2018-06-30T06:03:24.889Z,99.99
2018-06-30T06:04:25.054Z,99.99
2018-06-30T06:05:25.225Z,99.99
2018-06-30T06:06:25.395Z,99.99
2018-06-30T06:07:25.561Z,99.99
2018-06-30T06:08:25.731Z,99.99
2018-06-30T06:09:25.898Z,99.99
2018-06-30T06:10:26.065Z,99.99
2018-06-30T06:13:08.320Z,99.99
2018-06-30T06:14:08.490Z,99.99
2018-06-30T06:15:08.685Z,99.99
2018-06-30T06:16:08.823Z,99.99
2018-06-30T06:17:09.020Z,99.99
2018-06-30T06:18:09.160Z,99.99
2018-06-30T06:19:09.328Z,99.99
2018-06-30T06:20:09.550Z,99.99
2018-06-30T06:21:09.697Z,99.99
2018-06-30T06:22:09.830Z,99.99
2018-06-30T06:23:10.008Z,99.99
2018-06-30T06:24:10.170Z,99.99
2018-06-30T06:25:10.338Z,99.99
2018-06-30T06:26:10.509Z,99.99
2018-06-30T06:27:10.677Z,99.99
2018-06-30T06:29:53.546Z,99.99
2018-06-30T06:30:53.731Z,99.99
2018-06-30T06:31:53.901Z,99.99
2018-06-30T06:32:54.076Z,99.99
2018-06-30T06:33:54.239Z,99.99
2018-06-30T06:34:54.412Z,99.99
2018-06-30T06:35:54.579Z,99.99
2018-06-30T06:36:54.749Z,99.99
2018-06-30T06:37:54.921Z,99.99
2018-06-30T06:38:55.088Z,99.99
2018-06-30T06:41:37.705Z,99.99
2018-06-30T06:42:37.817Z,99.99
2018-06-30T06:43:37.987Z,99.99
2018-06-30T06:44:38.155Z,99.99
2018-06-30T06:45:38.327Z,99.99
2018-06-30T06:46:38.494Z,99.99
2018-06-30T06:47:38.661Z,99.99
2018-06-30T06:48:38.831Z,99.99
2018-06-30T06:49:39.000Z,99.99
2018-06-30T06:50:39.169Z,99.99
2018-06-30T06:53:21.730Z,99.99
2018-06-30T06:54:21.901Z,99.01
2018-06-30T06:55:22.068Z,98.68
2018-06-30T06:56:22.249Z,96.75
2018-06-30T06:57:22.403Z,99.78
2018-06-30T06:58:22.574Z,99.88
2018-06-30T06:59:22.741Z,99.54
2018-06-30T07:00:22.912Z,99.06
2018-06-30T07:01:23.080Z,98.29
2018-06-30T07:02:23.249Z,96.56
2018-06-30T07:03:23.429Z,94.92
2018-06-30T07:04:23.602Z,96.94
2018-06-30T07:05:23.769Z,97.33
2018-06-30T07:06:23.937Z,97.24
2018-06-30T07:07:24.106Z,97.81
2018-06-30T07:10:06.666Z,95.12
2018-06-30T07:11:06.834Z,92.80
2018-06-30T07:12:07.001Z,90.44
2018-06-30T07:13:07.173Z,92.90
2018-06-30T07:14:07.340Z,91.27
2018-06-30T07:15:07.510Z,92.08
2018-06-30T07:16:07.678Z,87.84
2018-06-30T07:17:07.850Z,84.66
2018-06-30T07:18:08.021Z,84.86
2018-06-30T07:19:08.189Z,86.21
2018-06-30T07:20:08.358Z,84.03
2018-06-30T07:21:08.541Z,80.94
2018-06-30T07:22:08.720Z,79.50
2018-06-30T07:23:08.888Z,78.92
2018-06-30T07:24:09.056Z,78.25
2018-06-30T07:26:51.762Z,77.19
2018-06-30T07:27:51.783Z,74.78
2018-06-30T07:28:51.951Z,73.91
2018-06-30T07:29:52.116Z,77.86
2018-06-30T07:30:52.302Z,76.90
2018-06-30T07:31:52.470Z,76.80
2018-06-30T07:32:52.641Z,78.44
2018-06-30T07:33:52.803Z,78.63
2018-06-30T07:34:52.977Z,76.03
2018-06-30T07:35:53.147Z,74.20
2018-06-30T07:37:01.301Z,76.32
2018-06-30T07:37:53.433Z,75.65
2018-06-30T07:38:53.603Z,74.88
2018-06-30T07:39:53.773Z,74.97
2018-06-30T07:41:02.023Z,74.82
2018-06-30T07:41:54.140Z,72.69
2018-06-30T07:42:54.311Z,73.27
2018-06-30T07:43:54.481Z,72.41
2018-06-30T07:44:54.648Z,73.18
2018-06-30T07:45:54.822Z,73.37
2018-06-30T07:46:54.992Z,73.75
2018-06-30T07:47:55.176Z,74.82
2018-06-30T07:48:55.348Z,73.62
2018-06-30T07:49:55.519Z,72.79
2018-06-30T07:50:55.684Z,70.67
2018-06-30T07:51:55.857Z,70.64
2018-06-30T07:52:56.029Z,71.31
2018-06-30T07:53:56.200Z,71.31
2018-06-30T07:54:56.379Z,72.60
2018-06-30T07:55:56.539Z,69.13
2018-06-30T07:58:40.107Z,66.56
2018-06-30T07:59:40.276Z,66.36
2018-06-30T08:00:40.448Z,65.91
2018-06-30T08:01:40.619Z,64.95
2018-06-30T08:02:40.788Z,64.56
2018-06-30T08:03:40.960Z,64.63
2018-06-30T08:04:41.131Z,62.99
2018-06-30T08:05:41.300Z,63.31
2018-06-30T08:06:41.471Z,64.05
2018-06-30T08:07:41.646Z,64.15
2018-06-30T08:08:41.821Z,64.72
2018-06-30T08:09:41.985Z,65.50
2018-06-30T08:10:42.151Z,66.27
2018-06-30T08:11:42.324Z,66.04
2018-06-30T08:12:42.493Z,67.00
2018-06-30T08:15:25.056Z,66.14
2018-06-30T08:16:25.227Z,66.24
2018-06-30T08:17:25.398Z,65.85
2018-06-30T08:18:25.570Z,65.47
2018-06-30T08:19:25.747Z,65.56
2018-06-30T08:20:25.913Z,66.14
2018-06-30T08:21:26.086Z,66.04
2018-06-30T08:22:26.253Z,65.37
2018-06-30T08:23:27.303Z,65.56
2018-06-30T08:24:26.596Z,66.04
2018-06-30T08:25:26.764Z,65.47
2018-06-30T08:26:26.934Z,65.66
2018-06-30T08:27:27.102Z,65.66
2018-06-30T08:28:27.273Z,64.98
2018-06-30T08:29:27.478Z,65.66
2018-06-30T08:32:09.999Z,66.43
2018-06-30T08:33:10.168Z,66.62
2018-06-30T08:34:10.336Z,64.02
2018-06-30T08:35:10.514Z,62.76
2018-06-30T08:36:10.756Z,61.80
2018-06-30T08:37:10.882Z,61.35
2018-06-30T08:38:11.044Z,61.25
2018-06-30T08:39:11.216Z,60.38
2018-06-30T08:40:11.386Z,60.00
2018-06-30T08:41:11.547Z,59.23
2018-06-30T08:42:11.719Z,59.80
2018-06-30T08:43:11.886Z,59.80
2018-06-30T08:44:12.752Z,59.90
2018-06-30T08:45:12.170Z,61.61
2018-06-30T08:46:12.339Z,62.28
2018-06-30T08:48:54.895Z,61.35
2018-06-30T08:49:55.070Z,60.38
2018-06-30T08:50:55.244Z,60.48
2018-06-30T08:51:55.414Z,59.97
2018-06-30T08:52:55.597Z,60.35
2018-06-30T08:53:55.752Z,59.97
2018-06-30T08:54:55.921Z,60.26
2018-06-30T08:55:56.094Z,60.16
2018-06-30T08:56:56.279Z,60.45
2018-06-30T08:57:56.431Z,61.03
2018-06-30T08:58:56.602Z,62.18
2018-06-30T08:59:56.770Z,60.83
2018-06-30T09:00:56.942Z,60.06
2018-06-30T09:01:57.111Z,58.94
2018-06-30T09:02:57.282Z,58.65
2018-06-30T09:05:39.847Z,56.81
2018-06-30T09:06:40.054Z,56.81
2018-06-30T09:07:40.198Z,56.14
2018-06-30T09:08:40.369Z,56.62
2018-06-30T09:09:40.672Z,55.27
2018-06-30T09:10:40.768Z,55.08
2018-06-30T09:11:40.897Z,55.27
2018-06-30T09:12:41.067Z,55.46
2018-06-30T09:13:41.236Z,55.40
2018-06-30T09:14:41.410Z,54.43
2018-06-30T09:15:41.577Z,53.95
2018-06-30T09:16:41.752Z,52.89
2018-06-30T09:17:41.917Z,51.17
2018-06-30T09:18:42.082Z,49.60
2018-06-30T09:19:42.250Z,48.18
2018-06-30T09:22:24.506Z,49.32
2018-06-30T09:23:25.557Z,50.21
2018-06-30T09:24:24.849Z,50.76
2018-06-30T09:25:25.024Z,50.96
2018-06-30T09:26:25.193Z,49.70
2018-06-30T09:27:25.362Z,49.22
2018-06-30T09:28:25.527Z,48.76
2018-06-30T09:29:25.698Z,48.08
2018-06-30T09:30:25.872Z,47.89
2018-06-30T09:31:26.042Z,47.99
2018-06-30T09:32:26.216Z,48.28
2018-06-30T09:33:26.388Z,48.16
2018-06-30T09:34:26.577Z,48.44
2018-06-30T09:35:26.750Z,48.74
2018-06-30T09:36:26.921Z,47.89
2018-06-30T09:39:09.474Z,45.79
2018-06-30T09:40:09.642Z,45.01
2018-06-30T09:41:09.814Z,45.23
2018-06-30T09:42:09.983Z,43.95
2018-06-30T09:43:10.152Z,43.18
2018-06-30T09:44:10.328Z,43.47
2018-06-30T09:45:10.497Z,43.28
2018-06-30T09:46:10.693Z,43.08
2018-06-30T09:47:10.860Z,43.08
2018-06-30T09:48:11.029Z,43.30
2018-06-30T09:50:53.328Z,40.88
2018-06-30T09:51:53.467Z,40.03
2018-06-30T09:52:53.634Z,40.23
2018-06-30T09:53:53.809Z,40.40
2018-06-30T09:54:53.978Z,40.78
2018-06-30T09:55:54.151Z,40.50
2018-06-30T09:56:54.331Z,37.40
2018-06-30T09:57:54.487Z,35.95
2018-06-30T09:58:54.658Z,35.57
2018-06-30T09:59:54.812Z,35.47
2018-06-30T10:00:54.986Z,35.57
2018-06-30T10:01:55.158Z,36.05
2018-06-30T10:02:55.334Z,36.15
2018-06-30T10:03:55.504Z,35.76
2018-06-30T10:04:55.672Z,36.15
2018-06-30T10:12:28.181Z,34.78
2018-06-30T10:13:28.350Z,35.36
2018-06-30T10:14:28.522Z,35.08
2018-06-30T10:15:28.692Z,34.70
2018-06-30T10:16:28.869Z,34.42
2018-06-30T10:17:29.086Z,34.23
2018-06-30T10:18:29.205Z,33.36
2018-06-30T10:19:29.448Z,33.09
2018-06-30T10:20:29.548Z,32.01
2018-06-30T10:21:29.719Z,31.62
2018-06-30T10:22:29.888Z,31.43
2018-06-30T10:23:30.061Z,31.33
2018-06-30T10:24:30.231Z,30.94
2018-06-30T10:25:30.399Z,30.94
2018-06-30T10:26:38.521Z,30.55
2018-06-30T10:27:30.676Z,30.85
2018-06-30T10:28:30.855Z,31.62
2018-06-30T10:29:31.028Z,31.99
2018-06-30T10:30:31.201Z,32.67
2018-06-30T10:31:31.366Z,32.28
2018-06-30T10:32:31.538Z,31.80
2018-06-30T10:33:31.713Z,31.68
2018-06-30T10:34:31.881Z,31.88
2018-06-30T10:35:32.054Z,31.89
2018-06-30T10:36:32.224Z,32.09
2018-06-30T10:37:32.407Z,32.09
2018-06-30T10:38:32.569Z,31.89
2018-06-30T10:39:32.733Z,32.86
2018-06-30T10:40:32.900Z,33.15
2018-06-30T10:43:15.477Z,32.29
2018-06-30T10:44:15.649Z,32.10
2018-06-30T10:45:15.827Z,32.20
2018-06-30T10:46:15.994Z,32.12
2018-06-30T10:47:18.713Z,32.02
2018-06-30T10:48:16.376Z,31.44
2018-06-30T10:49:16.548Z,31.04
2018-06-30T10:50:16.729Z,31.91
2018-06-30T10:51:16.889Z,31.71
2018-06-30T10:52:17.058Z,31.83
2018-06-30T10:54:59.625Z,31.83
2018-06-30T10:56:07.241Z,31.44
2018-06-30T10:56:59.904Z,30.96
2018-06-30T10:58:00.078Z,30.57
2018-06-30T10:59:07.701Z,30.49
2018-06-30T11:00:00.364Z,30.00
2018-06-30T11:01:00.535Z,29.33
2018-06-30T11:02:00.743Z,29.81
2018-06-30T11:03:00.913Z,30.10
2018-06-30T11:04:01.108Z,30.31
2018-06-30T11:05:01.253Z,30.00
2018-06-30T11:06:01.424Z,30.20
2018-06-30T11:07:01.607Z,29.03
2018-06-30T11:08:01.769Z,28.36
2018-06-30T11:09:01.953Z,28.94
2018-06-30T11:10:02.126Z,28.94
2018-06-30T11:11:02.306Z,28.85
2018-06-30T11:12:02.471Z,27.78
2018-06-30T11:13:02.639Z,27.39
2018-06-30T11:15:44.911Z,28.36
2018-06-30T11:16:45.083Z,28.85
2018-06-30T11:17:45.250Z,29.50
2018-06-30T11:18:45.421Z,29.22
2018-06-30T11:19:45.599Z,28.92
2018-06-30T11:20:45.769Z,29.22
2018-06-30T11:21:45.942Z,29.12
2018-06-30T11:22:46.121Z,29.02
2018-06-30T11:23:46.291Z,28.15
2018-06-30T11:24:46.463Z,27.78
2018-06-30T11:26:10.460Z,25.73
2018-06-30T11:27:10.451Z,25.35
2018-06-30T11:27:46.981Z,25.93
2018-06-30T11:28:54.809Z,26.89
2018-06-30T11:29:47.356Z,27.00
2018-06-30T11:30:47.522Z,27.37
2018-06-30T11:31:55.150Z,27.28
2018-06-30T11:32:55.752Z,27.78
2018-06-30T11:33:48.042Z,27.49
2018-06-30T11:34:48.206Z,26.41
2018-06-30T11:35:48.375Z,26.99
2018-06-30T11:36:48.546Z,27.09
2018-06-30T11:37:48.717Z,27.36
2018-06-30T11:38:48.886Z,27.66
2018-06-30T11:39:49.064Z,28.14
2018-06-30T11:40:50.167Z,28.23
2018-06-30T11:41:50.007Z,29.01
2018-06-30T11:42:49.553Z,28.54
2018-06-30T11:43:49.723Z,28.34
2018-06-30T11:44:49.892Z,27.09
2018-06-30T11:45:50.061Z,27.28
2018-06-30T11:48:32.639Z,27.58
2018-06-30T11:49:32.808Z,28.07
2018-06-30T11:50:32.981Z,27.37
2018-06-30T11:51:33.153Z,27.09
2018-06-30T11:52:33.328Z,27.86
2018-06-30T11:53:33.494Z,27.28
2018-06-30T11:54:33.662Z,27.29
2018-06-30T11:55:33.831Z,27.39
2018-06-30T11:56:34.001Z,27.97
2018-06-30T11:57:34.172Z,27.98
2018-06-30T12:00:16.741Z,26.74
2018-06-30T12:01:16.913Z,27.03
2018-06-30T12:02:17.092Z,25.96
2018-06-30T12:03:19.969Z,24.69
2018-06-30T12:04:17.387Z,24.79
2018-06-30T12:05:17.550Z,24.98
2018-06-30T12:06:17.719Z,24.21
2018-06-30T12:07:17.890Z,24.79
2018-06-30T12:09:49.960Z,25.37
2018-06-30T12:10:50.138Z,25.85
2018-06-30T12:11:50.307Z,26.92
2018-06-30T12:12:50.477Z,26.05
2018-06-30T12:13:50.647Z,26.15
2018-06-30T12:14:50.815Z,26.25
2018-06-30T12:15:50.987Z,25.95
2018-06-30T12:16:51.157Z,25.95
2018-06-30T12:17:51.333Z,25.56
2018-06-30T12:18:51.505Z,25.56
2018-06-30T12:19:51.674Z,25.38
2018-06-30T12:20:51.846Z,25.29
2018-06-30T12:21:52.020Z,24.90
2018-06-30T12:22:52.249Z,24.90
2018-06-30T12:23:52.359Z,24.90
2018-06-30T12:25:00.479Z,25.48
2018-06-30T12:25:52.651Z,24.99
2018-06-30T12:26:52.813Z,25.38
2018-06-30T12:27:52.986Z,24.99
2018-06-30T12:29:00.636Z,24.80
2018-06-30T12:29:53.288Z,25.18
2018-06-30T12:30:53.457Z,25.96
2018-06-30T12:31:53.672Z,25.96
2018-06-30T12:32:53.803Z,25.48
2018-06-30T12:33:53.969Z,25.96
2018-06-30T12:34:54.140Z,26.15
2018-06-30T12:35:54.309Z,25.87
2018-06-30T12:36:54.481Z,25.96
2018-06-30T12:37:54.664Z,25.85
2018-06-30T12:38:55.665Z,25.47
2018-06-30T12:39:55.182Z,25.47
2018-06-30T12:40:55.220Z,25.37
2018-06-30T12:41:55.401Z,26.25
2018-06-30T12:42:55.554Z,25.76
2018-06-30T12:45:38.142Z,24.39
2018-06-30T12:46:38.311Z,23.42
2018-06-30T12:47:39.366Z,24.01
2018-06-30T12:48:38.663Z,24.68
2018-06-30T12:49:38.833Z,25.46
2018-06-30T12:50:46.206Z,25.65
2018-06-30T12:51:39.129Z,25.36
2018-06-30T12:52:39.297Z,24.79
2018-06-30T12:53:47.424Z,24.60
2018-06-30T12:54:39.723Z,24.50
2018-06-30T12:55:39.778Z,24.19
2018-06-30T12:56:39.949Z,24.29
2018-06-30T12:57:40.122Z,24.97
2018-06-30T12:58:40.294Z,24.97
2018-06-30T12:59:40.472Z,24.97
2018-06-30T13:00:40.630Z,24.78
2018-06-30T13:01:40.800Z,24.40
2018-06-30T13:02:40.974Z,24.11
2018-06-30T13:03:41.164Z,24.21
2018-06-30T13:04:41.330Z,23.64
2018-06-30T13:05:41.503Z,24.13
2018-06-30T13:06:41.674Z,24.92
2018-06-30T13:07:41.842Z,22.99
2018-06-30T13:08:42.016Z,22.89
2018-06-30T13:11:24.305Z,23.26
2018-06-30T13:12:32.403Z,23.46
2018-06-30T13:13:24.703Z,23.46
2018-06-30T13:14:24.873Z,23.46
2018-06-30T13:15:25.051Z,23.65
2018-06-30T13:16:32.713Z,24.03
2018-06-30T13:17:25.412Z,24.41
2018-06-30T13:18:25.533Z,24.51
2018-06-30T13:19:25.702Z,25.08
2018-06-30T13:20:25.869Z,25.18
2018-06-30T13:21:26.042Z,25.29
2018-06-30T13:22:26.214Z,25.19
2018-06-30T13:23:26.390Z,24.90
2018-06-30T13:24:26.562Z,24.80
2018-06-30T13:25:26.731Z,23.94
2018-06-30T13:26:27.855Z,24.04
2018-06-30T13:27:27.036Z,23.36
2018-06-30T13:28:27.200Z,23.25
2018-06-30T13:29:27.371Z,23.25
2018-06-30T13:30:27.554Z,23.54
2018-06-30T13:33:17.410Z,22.97
2018-06-30T13:34:10.327Z,23.07
2018-06-30T13:35:10.498Z,22.88
2018-06-30T13:36:11.370Z,22.96
2018-06-30T13:37:10.781Z,22.96
2018-06-30T13:38:11.151Z,22.88
2018-06-30T13:39:11.069Z,22.78
2018-06-30T13:40:11.243Z,22.77
2018-06-30T13:41:11.412Z,22.78
2018-06-30T13:42:14.865Z,0.00
2018-06-30T13:43:11.860Z,23.16
2018-06-30T13:44:11.965Z,23.16
2018-06-30T13:45:12.152Z,22.88
2018-06-30T13:46:12.327Z,23.16
2018-06-30T13:47:12.500Z,23.26
2018-06-30T13:49:55.079Z,23.35
2018-06-30T13:50:55.258Z,23.06
2018-06-30T13:51:55.429Z,23.07
2018-06-30T13:52:56.301Z,23.07
2018-06-30T13:53:55.728Z,23.16
2018-06-30T13:54:55.918Z,22.20
2018-06-30T13:55:56.071Z,22.30
2018-06-30T13:56:56.289Z,22.09
2018-06-30T13:57:56.418Z,22.19
2018-06-30T13:58:56.584Z,22.10
2018-06-30T13:59:56.758Z,21.24
2018-06-30T14:00:56.939Z,21.82
2018-06-30T14:01:57.104Z,21.24
2018-06-30T14:02:57.277Z,21.24
2018-06-30T14:03:57.449Z,20.95
2018-06-30T14:06:39.736Z,21.33
2018-06-30T14:07:39.906Z,22.39
2018-06-30T14:08:40.150Z,22.10
2018-06-30T14:09:47.646Z,21.22
2018-06-30T14:10:40.310Z,22.00
2018-06-30T14:11:40.481Z,21.71
2018-06-30T14:12:40.679Z,20.74
2018-06-30T14:13:40.822Z,20.84
2018-06-30T14:14:40.994Z,20.84
2018-06-30T14:15:41.168Z,20.85
2018-06-30T14:16:41.334Z,20.75
2018-06-30T14:17:41.508Z,20.56
2018-06-30T14:18:41.722Z,20.56
2018-06-30T14:19:41.853Z,20.75
2018-06-30T14:20:42.037Z,20.75
2018-06-30T14:21:42.201Z,20.56
2018-06-30T14:22:42.370Z,20.75
2018-06-30T14:23:42.541Z,21.14
2018-06-30T14:24:50.658Z,21.33
2018-06-30T14:25:42.822Z,21.81
2018-06-30T14:26:42.993Z,21.62
2018-06-30T14:27:43.799Z,22.10
2018-06-30T14:28:44.299Z,22.28
2018-06-30T14:29:43.456Z,22.39
2018-06-30T14:30:43.645Z,22.49